sensor_id;sensor_type;location;lat;lon;timestamp;P1;durP1;ratioP1;P2;durP2;ratioP2
63664;SDS011;49820;33.966;73.390;2023-03-01T02:37:02;9.18;;;5.65;;
63664;SDS011;49820;33.966;73.390;2023-03-01T02:55:34;9.90;;;4.53;;
63664;SDS011;49820;33.966;73.390;2023-03-01T02:58:03;6.77;;;4.10;;
63664;SDS011;49820;33.966;73.390;2023-03-01T03:00:38;8.15;;;4.22;;
63664;SDS011;49820;33.966;73.390;2023-03-01T03:06:35;10.60;;;4.28;;
63664;SDS011;49820;33.966;73.390;2023-03-01T03:09:04;8.93;;;4.63;;
63664;SDS011;49820;33.966;73.390;2023-03-01T03:11:33;8.13;;;4.57;;
63664;SDS011;49820;33.966;73.390;2023-03-01T03:14:13;8.63;;;4.65;;
63664;SDS011;49820;33.966;73.390;2023-03-01T03:16:48;6.68;;;4.38;;
63664;SDS011;49820;33.966;73.390;2023-03-01T03:19:20;6.65;;;4.03;;
63664;SDS011;49820;33.966;73.390;2023-03-01T03:21:49;8.45;;;3.92;;
63664;SDS011;49820;33.966;73.390;2023-03-01T03:58:02;9.45;;;4.60;;
63664;SDS011;49820;33.966;73.390;2023-03-01T04:00:35;7.15;;;4.80;;
63664;SDS011;49820;33.966;73.390;2023-03-01T04:03:07;7.22;;;4.70;;
63664;SDS011;49820;33.966;73.390;2023-03-01T04:05:37;7.63;;;4.63;;
63664;SDS011;49820;33.966;73.390;2023-03-01T04:08:07;9.70;;;4.50;;
63664;SDS011;49820;33.966;73.390;2023-03-01T04:10:39;8.30;;;4.82;;
63664;SDS011;49820;33.966;73.390;2023-03-01T04:13:10;8.55;;;4.43;;
63664;SDS011;49820;33.966;73.390;2023-03-01T04:15:41;8.90;;;4.85;;
63664;SDS011;49820;33.966;73.390;2023-03-01T04:18:13;7.55;;;4.93;;
63664;SDS011;49820;33.966;73.390;2023-03-01T04:20:44;6.75;;;4.38;;
63664;SDS011;49820;33.966;73.390;2023-03-01T04:47:55;11.98;;;5.50;;
63664;SDS011;49820;33.966;73.390;2023-03-01T04:50:26;9.65;;;5.50;;
63664;SDS011;49820;33.966;73.390;2023-03-01T04:52:55;10.68;;;6.13;;
63664;SDS011;49820;33.966;73.390;2023-03-01T04:55:28;9.73;;;5.63;;
63664;SDS011;49820;33.966;73.390;2023-03-01T04:57:57;8.68;;;6.00;;
63664;SDS011;49820;33.966;73.390;2023-03-01T05:00:26;9.98;;;5.95;;
63664;SDS011;49820;33.966;73.390;2023-03-01T05:02:57;11.93;;;5.65;;
63664;SDS011;49820;33.966;73.390;2023-03-01T05:05:32;9.70;;;5.90;;
63664;SDS011;49820;33.966;73.390;2023-03-01T05:08:05;9.57;;;5.57;;
63664;SDS011;49820;33.966;73.390;2023-03-01T05:10:36;9.68;;;5.20;;
63664;SDS011;49820;33.966;73.390;2023-03-01T05:13:07;10.38;;;6.22;;
63664;SDS011;49820;33.966;73.390;2023-03-01T05:15:37;7.45;;;5.20;;
63664;SDS011;49820;33.966;73.390;2023-03-01T05:18:06;8.45;;;5.43;;
63664;SDS011;49820;33.966;73.390;2023-03-01T05:20:39;10.02;;;5.78;;
63664;SDS011;49820;33.966;73.390;2023-03-01T05:23:08;12.50;;;5.70;;
63664;SDS011;49820;33.966;73.390;2023-03-01T05:25:37;9.57;;;5.82;;
63664;SDS011;49820;33.966;73.390;2023-03-01T05:28:10;8.35;;;6.00;;
63664;SDS011;49820;33.966;73.390;2023-03-01T05:30:40;9.55;;;5.55;;
63664;SDS011;49820;33.966;73.390;2023-03-01T05:33:11;8.63;;;5.28;;
63664;SDS011;49820;33.966;73.390;2023-03-01T05:35:43;7.63;;;4.93;;
63664;SDS011;49820;33.966;73.390;2023-03-01T05:38:13;7.10;;;4.75;;
63664;SDS011;49820;33.966;73.390;2023-03-01T05:40:43;8.95;;;5.20;;
63664;SDS011;49820;33.966;73.390;2023-03-01T05:43:15;8.98;;;5.15;;
63664;SDS011;49820;33.966;73.390;2023-03-01T05:45:44;10.07;;;5.28;;
63664;SDS011;49820;33.966;73.390;2023-03-01T05:48:13;9.10;;;4.97;;
63664;SDS011;49820;33.966;73.390;2023-03-01T05:50:43;10.40;;;5.07;;
63664;SDS011;49820;33.966;73.390;2023-03-01T05:53:14;10.82;;;5.25;;
63664;SDS011;49820;33.966;73.390;2023-03-01T05:55:49;8.82;;;5.13;;
63664;SDS011;49820;33.966;73.390;2023-03-01T05:58:19;9.43;;;4.53;;
63664;SDS011;49820;33.966;73.390;2023-03-01T06:00:49;8.82;;;4.93;;
63664;SDS011;49820;33.966;73.390;2023-03-01T06:03:20;8.45;;;5.00;;
63664;SDS011;49820;33.966;73.390;2023-03-01T06:05:55;9.88;;;5.03;;
63664;SDS011;49820;33.966;73.390;2023-03-01T06:08:25;8.43;;;4.80;;
63664;SDS011;49820;33.966;73.390;2023-03-01T06:10:56;8.40;;;4.85;;
63664;SDS011;49820;33.966;73.390;2023-03-01T06:13:25;7.25;;;4.50;;
63664;SDS011;49820;33.966;73.390;2023-03-01T06:15:54;8.98;;;5.25;;
63664;SDS011;49820;33.966;73.390;2023-03-01T06:18:23;8.82;;;4.85;;
63664;SDS011;49820;33.966;73.390;2023-03-01T06:20:55;9.38;;;5.00;;
63664;SDS011;49820;33.966;73.390;2023-03-01T06:23:24;10.32;;;4.95;;
63664;SDS011;49820;33.966;73.390;2023-03-01T06:25:53;8.52;;;4.68;;
63664;SDS011;49820;33.966;73.390;2023-03-01T06:28:22;8.55;;;5.03;;
63664;SDS011;49820;33.966;73.390;2023-03-01T06:30:51;7.47;;;4.30;;
63664;SDS011;49820;33.966;73.390;2023-03-01T06:33:21;9.95;;;4.70;;
63664;SDS011;49820;33.966;73.390;2023-03-01T06:35:55;8.27;;;4.70;;
63664;SDS011;49820;33.966;73.390;2023-03-01T06:38:24;11.60;;;5.70;;
63664;SDS011;49820;33.966;73.390;2023-03-01T06:40:54;7.10;;;4.75;;
63664;SDS011;49820;33.966;73.390;2023-03-01T06:43:24;8.57;;;4.97;;
63664;SDS011;49820;33.966;73.390;2023-03-01T06:45:53;8.00;;;4.88;;
63664;SDS011;49820;33.966;73.390;2023-03-01T06:48:22;9.63;;;4.78;;
63664;SDS011;49820;33.966;73.390;2023-03-01T06:50:51;7.97;;;4.78;;
63664;SDS011;49820;33.966;73.390;2023-03-01T06:53:21;9.40;;;5.15;;
63664;SDS011;49820;33.966;73.390;2023-03-01T06:55:58;8.48;;;4.72;;
63664;SDS011;49820;33.966;73.390;2023-03-01T06:58:31;9.82;;;5.10;;
63664;SDS011;49820;33.966;73.390;2023-03-01T07:01:00;11.15;;;5.40;;
63664;SDS011;49820;33.966;73.390;2023-03-01T07:03:33;9.20;;;4.88;;
63664;SDS011;49820;33.966;73.390;2023-03-01T07:06:04;8.95;;;5.30;;
63664;SDS011;49820;33.966;73.390;2023-03-01T07:08:33;8.15;;;5.22;;
63664;SDS011;49820;33.966;73.390;2023-03-01T07:11:02;9.32;;;5.05;;
63664;SDS011;49820;33.966;73.390;2023-03-01T07:13:32;8.45;;;5.72;;
63664;SDS011;49820;33.966;73.390;2023-03-01T07:16:00;8.48;;;5.30;;
63664;SDS011;49820;33.966;73.390;2023-03-01T07:18:29;9.13;;;5.70;;
63664;SDS011;49820;33.966;73.390;2023-03-01T07:20:58;10.48;;;5.45;;
63664;SDS011;49820;33.966;73.390;2023-03-01T07:23:32;8.65;;;5.60;;
63664;SDS011;49820;33.966;73.390;2023-03-01T07:26:02;9.55;;;5.38;;
63664;SDS011;49820;33.966;73.390;2023-03-01T07:28:31;8.05;;;5.55;;
63664;SDS011;49820;33.966;73.390;2023-03-01T07:31:04;10.75;;;5.95;;
63664;SDS011;49820;33.966;73.390;2023-03-01T07:33:34;8.20;;;5.70;;
63664;SDS011;49820;33.966;73.390;2023-03-01T07:36:04;8.63;;;5.07;;
63664;SDS011;49820;33.966;73.390;2023-03-01T07:38:33;10.32;;;5.10;;
63664;SDS011;49820;33.966;73.390;2023-03-01T07:41:03;10.88;;;5.55;;
63664;SDS011;49820;33.966;73.390;2023-03-01T07:43:34;10.98;;;5.63;;
63664;SDS011;49820;33.966;73.390;2023-03-01T07:46:03;9.38;;;5.30;;
63664;SDS011;49820;33.966;73.390;2023-03-01T07:48:33;8.63;;;5.32;;
63664;SDS011;49820;33.966;73.390;2023-03-01T07:51:02;10.27;;;5.32;;
63664;SDS011;49820;33.966;73.390;2023-03-01T07:53:33;7.72;;;5.45;;
63664;SDS011;49820;33.966;73.390;2023-03-01T07:56:06;9.90;;;6.10;;
63664;SDS011;49820;33.966;73.390;2023-03-01T07:58:37;8.63;;;5.68;;
63664;SDS011;49820;33.966;73.390;2023-03-01T08:01:09;10.13;;;6.13;;
63664;SDS011;49820;33.966;73.390;2023-03-01T08:03:41;11.15;;;6.43;;
63664;SDS011;49820;33.966;73.390;2023-03-01T08:06:13;10.70;;;6.30;;
63664;SDS011;49820;33.966;73.390;2023-03-01T08:08:43;10.47;;;6.30;;
63664;SDS011;49820;33.966;73.390;2023-03-01T08:11:13;10.60;;;5.78;;
63664;SDS011;49820;33.966;73.390;2023-03-01T08:13:43;9.90;;;5.70;;
63664;SDS011;49820;33.966;73.390;2023-03-01T08:16:12;9.82;;;5.97;;
63664;SDS011;49820;33.966;73.390;2023-03-01T08:18:44;8.40;;;5.63;;
63664;SDS011;49820;33.966;73.390;2023-03-01T08:21:14;12.25;;;6.30;;
63664;SDS011;49820;33.966;73.390;2023-03-01T08:23:44;8.95;;;6.10;;
63664;SDS011;49820;33.966;73.390;2023-03-01T08:26:29;11.23;;;5.60;;
63664;SDS011;49820;33.966;73.390;2023-03-01T08:29:02;9.57;;;5.82;;
63664;SDS011;49820;33.966;73.390;2023-03-01T08:31:36;9.60;;;5.63;;
63664;SDS011;49820;33.966;73.390;2023-03-01T08:34:07;9.18;;;5.20;;
63664;SDS011;49820;33.966;73.390;2023-03-01T08:36:39;8.63;;;5.22;;
63664;SDS011;49820;33.966;73.390;2023-03-01T08:39:11;8.05;;;4.95;;
63664;SDS011;49820;33.966;73.390;2023-03-01T08:41:42;11.85;;;6.07;;
63664;SDS011;49820;33.966;73.390;2023-03-01T08:44:14;7.80;;;4.32;;
63664;SDS011;49820;33.966;73.390;2023-03-01T08:46:49;7.63;;;4.60;;
63664;SDS011;49820;33.966;73.390;2023-03-01T08:49:21;8.93;;;5.00;;
63664;SDS011;49820;33.966;73.390;2023-03-01T08:51:50;7.53;;;4.22;;
63664;SDS011;49820;33.966;73.390;2023-03-01T08:54:20;9.50;;;4.60;;
63664;SDS011;49820;33.966;73.390;2023-03-01T08:56:49;7.30;;;4.53;;
63664;SDS011;49820;33.966;73.390;2023-03-01T08:59:21;8.60;;;5.28;;
63664;SDS011;49820;33.966;73.390;2023-03-01T09:01:50;8.05;;;4.63;;
63664;SDS011;49820;33.966;73.390;2023-03-01T09:04:19;7.55;;;4.68;;
63664;SDS011;49820;33.966;73.390;2023-03-01T09:06:48;9.10;;;4.78;;
63664;SDS011;49820;33.966;73.390;2023-03-01T09:09:26;9.27;;;5.00;;
63664;SDS011;49820;33.966;73.390;2023-03-01T09:11:55;7.80;;;4.63;;
63664;SDS011;49820;33.966;73.390;2023-03-01T09:14:24;6.85;;;4.50;;
63664;SDS011;49820;33.966;73.390;2023-03-01T09:16:53;9.20;;;4.35;;
63664;SDS011;49820;33.966;73.390;2023-03-01T09:19:23;7.47;;;4.60;;
63664;SDS011;49820;33.966;73.390;2023-03-01T09:21:53;7.63;;;4.60;;
63664;SDS011;49820;33.966;73.390;2023-03-01T09:24:24;7.87;;;4.53;;
63664;SDS011;49820;33.966;73.390;2023-03-01T09:26:54;7.18;;;4.90;;
63664;SDS011;49820;33.966;73.390;2023-03-01T09:29:25;7.38;;;4.93;;
63664;SDS011;49820;33.966;73.390;2023-03-01T09:31:54;7.78;;;4.80;;
63664;SDS011;49820;33.966;73.390;2023-03-01T09:34:23;8.82;;;5.40;;
63664;SDS011;49820;33.966;73.390;2023-03-01T09:36:52;10.07;;;5.60;;
63664;SDS011;49820;33.966;73.390;2023-03-01T09:39:23;9.47;;;5.33;;
63664;SDS011;49820;33.966;73.390;2023-03-01T09:42:02;8.65;;;5.40;;
63664;SDS011;49820;33.966;73.390;2023-03-01T09:47:27;11.35;;;5.50;;
63664;SDS011;49820;33.966;73.390;2023-03-01T09:52:54;8.88;;;5.22;;
63664;SDS011;49820;33.966;73.390;2023-03-01T09:55:34;8.90;;;5.63;;
63664;SDS011;49820;33.966;73.390;2023-03-01T09:58:55;9.55;;;5.25;;
63664;SDS011;49820;33.966;73.390;2023-03-01T10:00:59;9.25;;;5.57;;
63664;SDS011;49820;33.966;73.390;2023-03-01T10:03:43;9.32;;;5.70;;
63664;SDS011;49820;33.966;73.390;2023-03-01T10:06:25;10.55;;;5.88;;
63664;SDS011;49820;33.966;73.390;2023-03-01T10:09:11;8.77;;;5.43;;
63664;SDS011;49820;33.966;73.390;2023-03-01T10:11:48;10.65;;;5.53;;
63664;SDS011;49820;33.966;73.390;2023-03-01T10:19:56;10.85;;;5.55;;
63664;SDS011;49820;33.966;73.390;2023-03-01T10:22:42;9.27;;;5.57;;
63664;SDS011;49820;33.966;73.390;2023-03-01T10:25:15;8.50;;;5.70;;
63664;SDS011;49820;33.966;73.390;2023-03-01T10:27:54;9.13;;;5.47;;
63664;SDS011;49820;33.966;73.390;2023-03-01T10:30:32;9.68;;;5.55;;
63664;SDS011;49820;33.966;73.390;2023-03-01T10:33:50;9.85;;;5.40;;
63664;SDS011;49820;33.966;73.390;2023-03-01T10:36:01;11.13;;;5.82;;
63664;SDS011;49820;33.966;73.390;2023-03-01T10:38:31;11.05;;;5.70;;
63664;SDS011;49820;33.966;73.390;2023-03-01T10:41:17;9.15;;;6.10;;
63664;SDS011;49820;33.966;73.390;2023-03-01T10:43:49;7.03;;;5.45;;
63664;SDS011;49820;33.966;73.390;2023-03-01T10:46:30;9.05;;;6.03;;
63664;SDS011;49820;33.966;73.390;2023-03-01T10:51:48;8.75;;;5.45;;
63664;SDS011;49820;33.966;73.390;2023-03-01T10:56:56;7.93;;;5.55;;
63664;SDS011;49820;33.966;73.390;2023-03-01T10:59:30;9.02;;;5.50;;
63664;SDS011;49820;33.966;73.390;2023-03-01T11:04:58;9.43;;;6.20;;
63664;SDS011;49820;33.966;73.390;2023-03-01T11:08:01;9.45;;;6.18;;
63664;SDS011;49820;33.966;73.390;2023-03-01T11:10:33;9.88;;;6.15;;
63664;SDS011;49820;33.966;73.390;2023-03-01T11:16:30;10.25;;;6.22;;
63664;SDS011;49820;33.966;73.390;2023-03-01T11:18:39;10.05;;;6.40;;
63664;SDS011;49820;33.966;73.390;2023-03-01T11:21:17;9.50;;;6.47;;
63664;SDS011;49820;33.966;73.390;2023-03-01T11:23:46;12.57;;;6.50;;
63664;SDS011;49820;33.966;73.390;2023-03-01T11:26:16;11.32;;;7.32;;
63664;SDS011;49820;33.966;73.390;2023-03-01T11:28:48;10.80;;;6.97;;
63664;SDS011;49820;33.966;73.390;2023-03-01T11:31:22;11.27;;;6.20;;
63664;SDS011;49820;33.966;73.390;2023-03-01T11:33:58;9.40;;;6.40;;
63664;SDS011;49820;33.966;73.390;2023-03-01T11:36:48;10.82;;;6.50;;
63664;SDS011;49820;33.966;73.390;2023-03-01T11:39:30;11.97;;;7.07;;
63664;SDS011;49820;33.966;73.390;2023-03-01T11:42:17;11.48;;;7.38;;
63664;SDS011;49820;33.966;73.390;2023-03-01T11:44:52;9.88;;;6.78;;
63664;SDS011;49820;33.966;73.390;2023-03-01T12:05:17;14.13;;;9.00;;
